sensor_id;sensor_type;location;lat;lon;timestamp;P1;durP1;ratioP1;P2;durP2;ratioP2
43449;SDS011;29041;42.266;23.110;2023-04-23T00:00:23;7.53;;;4.28;;
43449;SDS011;29041;42.266;23.110;2023-04-23T00:03:11;4.72;;;3.38;;
43449;SDS011;29041;42.266;23.110;2023-04-23T00:05:59;5.30;;;3.47;;
43449;SDS011;29041;42.266;23.110;2023-04-23T00:08:51;8.95;;;4.82;;
43449;SDS011;29041;42.266;23.110;2023-04-23T00:11:39;6.68;;;4.45;;
43449;SDS011;29041;42.266;23.110;2023-04-23T00:14:26;5.20;;;3.00;;
43449;SDS011;29041;42.266;23.110;2023-04-23T00:17:12;9.05;;;3.67;;
43449;SDS011;29041;42.266;23.110;2023-04-23T00:19:59;5.25;;;3.92;;
43449;SDS011;29041;42.266;23.110;2023-04-23T00:22:46;6.38;;;3.08;;
43449;SDS011;29041;42.266;23.110;2023-04-23T00:25:35;4.22;;;3.22;;
43449;SDS011;29041;42.266;23.110;2023-04-23T00:28:22;4.30;;;2.40;;
43449;SDS011;29041;42.266;23.110;2023-04-23T00:31:08;9.05;;;3.25;;
43449;SDS011;29041;42.266;23.110;2023-04-23T00:33:55;7.65;;;3.10;;
43449;SDS011;29041;42.266;23.110;2023-04-23T00:36:42;6.85;;;3.80;;
43449;SDS011;29041;42.266;23.110;2023-04-23T00:42:37;8.00;;;3.40;;
43449;SDS011;29041;42.266;23.110;2023-04-23T00:45:24;8.73;;;3.70;;
43449;SDS011;29041;42.266;23.110;2023-04-23T00:48:13;5.43;;;3.13;;
43449;SDS011;29041;42.266;23.110;2023-04-23T00:51:02;7.70;;;2.92;;
43449;SDS011;29041;42.266;23.110;2023-04-23T00:53:49;5.93;;;3.75;;
43449;SDS011;29041;42.266;23.110;2023-04-23T00:56:36;5.53;;;2.90;;
43449;SDS011;29041;42.266;23.110;2023-04-23T00:59:24;5.15;;;3.15;;
43449;SDS011;29041;42.266;23.110;2023-04-23T01:02:11;6.30;;;3.20;;
43449;SDS011;29041;42.266;23.110;2023-04-23T01:04:59;5.82;;;4.15;;
43449;SDS011;29041;42.266;23.110;2023-04-23T01:07:47;6.53;;;3.58;;
43449;SDS011;29041;42.266;23.110;2023-04-23T01:10:34;6.30;;;2.95;;
43449;SDS011;29041;42.266;23.110;2023-04-23T01:13:21;8.20;;;3.10;;
43449;SDS011;29041;42.266;23.110;2023-04-23T01:16:12;5.78;;;3.30;;
43449;SDS011;29041;42.266;23.110;2023-04-23T01:18:59;5.07;;;2.90;;
43449;SDS011;29041;42.266;23.110;2023-04-23T01:21:46;3.65;;;2.53;;
43449;SDS011;29041;42.266;23.110;2023-04-23T01:24:36;4.05;;;2.97;;
43449;SDS011;29041;42.266;23.110;2023-04-23T01:27:23;4.18;;;3.20;;
43449;SDS011;29041;42.266;23.110;2023-04-23T01:30:11;7.97;;;3.17;;
43449;SDS011;29041;42.266;23.110;2023-04-23T01:32:58;8.18;;;4.03;;
43449;SDS011;29041;42.266;23.110;2023-04-23T01:35:45;10.80;;;3.65;;
43449;SDS011;29041;42.266;23.110;2023-04-23T01:38:33;9.07;;;3.70;;
43449;SDS011;29041;42.266;23.110;2023-04-23T01:43:54;6.63;;;3.05;;
43449;SDS011;29041;42.266;23.110;2023-04-23T01:46:41;5.90;;;2.78;;
43449;SDS011;29041;42.266;23.110;2023-04-23T01:49:28;4.00;;;3.05;;
43449;SDS011;29041;42.266;23.110;2023-04-23T01:52:15;8.15;;;3.08;;
43449;SDS011;29041;42.266;23.110;2023-04-23T01:55:02;6.55;;;3.70;;
43449;SDS011;29041;42.266;23.110;2023-04-23T01:57:48;4.32;;;2.45;;
43449;SDS011;29041;42.266;23.110;2023-04-23T02:00:38;3.90;;;2.83;;
43449;SDS011;29041;42.266;23.110;2023-04-23T02:03:24;5.80;;;3.65;;
43449;SDS011;29041;42.266;23.110;2023-04-23T02:06:11;7.00;;;3.60;;
43449;SDS011;29041;42.266;23.110;2023-04-23T02:08:58;7.13;;;4.18;;
43449;SDS011;29041;42.266;23.110;2023-04-23T02:11:45;5.13;;;3.90;;
43449;SDS011;29041;42.266;23.110;2023-04-23T02:14:32;6.78;;;3.10;;
43449;SDS011;29041;42.266;23.110;2023-04-23T02:17:20;5.97;;;3.83;;
43449;SDS011;29041;42.266;23.110;2023-04-23T02:20:08;7.50;;;3.85;;
43449;SDS011;29041;42.266;23.110;2023-04-23T02:22:56;5.10;;;3.08;;
43449;SDS011;29041;42.266;23.110;2023-04-23T02:25:43;4.18;;;3.40;;
43449;SDS011;29041;42.266;23.110;2023-04-23T02:28:30;7.07;;;3.05;;
43449;SDS011;29041;42.266;23.110;2023-04-23T02:31:17;5.43;;;3.13;;
43449;SDS011;29041;42.266;23.110;2023-04-23T02:34:06;5.65;;;3.40;;
43449;SDS011;29041;42.266;23.110;2023-04-23T02:36:53;9.23;;;3.75;;
43449;SDS011;29041;42.266;23.110;2023-04-23T02:39:40;5.95;;;4.18;;
43449;SDS011;29041;42.266;23.110;2023-04-23T02:42:27;5.38;;;2.60;;
43449;SDS011;29041;42.266;23.110;2023-04-23T02:45:14;7.88;;;3.72;;
43449;SDS011;29041;42.266;23.110;2023-04-23T02:48:00;5.40;;;3.60;;
43449;SDS011;29041;42.266;23.110;2023-04-23T02:50:50;9.07;;;3.50;;
43449;SDS011;29041;42.266;23.110;2023-04-23T02:53:36;5.28;;;3.20;;
43449;SDS011;29041;42.266;23.110;2023-04-23T02:56:23;6.13;;;3.35;;
43449;SDS011;29041;42.266;23.110;2023-04-23T02:59:10;6.43;;;4.15;;
43449;SDS011;29041;42.266;23.110;2023-04-23T03:01:57;7.10;;;3.22;;
43449;SDS011;29041;42.266;23.110;2023-04-23T03:04:44;6.40;;;4.50;;
43449;SDS011;29041;42.266;23.110;2023-04-23T03:07:32;6.70;;;4.15;;
43449;SDS011;29041;42.266;23.110;2023-04-23T03:10:19;9.95;;;3.83;;
43449;SDS011;29041;42.266;23.110;2023-04-23T03:13:06;5.80;;;3.80;;
43449;SDS011;29041;42.266;23.110;2023-04-23T03:15:53;6.13;;;4.13;;
43449;SDS011;29041;42.266;23.110;2023-04-23T03:18:40;6.18;;;3.75;;
43449;SDS011;29041;42.266;23.110;2023-04-23T03:21:27;7.47;;;3.72;;
43449;SDS011;29041;42.266;23.110;2023-04-23T03:24:16;7.38;;;4.00;;
43449;SDS011;29041;42.266;23.110;2023-04-23T03:27:03;6.53;;;4.15;;
43449;SDS011;29041;42.266;23.110;2023-04-23T03:29:50;7.90;;;3.72;;
43449;SDS011;29041;42.266;23.110;2023-04-23T03:32:37;8.82;;;4.80;;
43449;SDS011;29041;42.266;23.110;2023-04-23T03:35:24;4.88;;;3.22;;
43449;SDS011;29041;42.266;23.110;2023-04-23T03:38:11;8.50;;;3.97;;
43449;SDS011;29041;42.266;23.110;2023-04-23T03:40:59;6.53;;;3.90;;
43449;SDS011;29041;42.266;23.110;2023-04-23T03:43:46;4.55;;;3.22;;
43449;SDS011;29041;42.266;23.110;2023-04-23T03:46:33;6.57;;;3.25;;
43449;SDS011;29041;42.266;23.110;2023-04-23T03:49:20;6.05;;;3.20;;
43449;SDS011;29041;42.266;23.110;2023-04-23T03:52:07;5.28;;;3.95;;
43449;SDS011;29041;42.266;23.110;2023-04-23T03:54:54;7.18;;;4.20;;
43449;SDS011;29041;42.266;23.110;2023-04-23T03:57:42;10.25;;;4.55;;
43449;SDS011;29041;42.266;23.110;2023-04-23T04:00:29;8.60;;;4.85;;
43449;SDS011;29041;42.266;23.110;2023-04-23T04:03:16;6.03;;;4.03;;
43449;SDS011;29041;42.266;23.110;2023-04-23T04:06:03;5.53;;;3.50;;
43449;SDS011;29041;42.266;23.110;2023-04-23T04:08:50;5.68;;;3.72;;
43449;SDS011;29041;42.266;23.110;2023-04-23T04:11:37;8.48;;;3.72;;
43449;SDS011;29041;42.266;23.110;2023-04-23T04:14:25;11.07;;;4.05;;
43449;SDS011;29041;42.266;23.110;2023-04-23T04:17:12;8.00;;;3.90;;
43449;SDS011;29041;42.266;23.110;2023-04-23T04:20:00;8.05;;;4.18;;
43449;SDS011;29041;42.266;23.110;2023-04-23T04:22:47;6.85;;;4.28;;
43449;SDS011;29041;42.266;23.110;2023-04-23T04:25:34;7.55;;;4.28;;
43449;SDS011;29041;42.266;23.110;2023-04-23T04:28:24;7.03;;;3.55;;
43449;SDS011;29041;42.266;23.110;2023-04-23T04:31:13;6.85;;;4.13;;
43449;SDS011;29041;42.266;23.110;2023-04-23T04:34:01;6.00;;;3.60;;
43449;SDS011;29041;42.266;23.110;2023-04-23T04:36:48;5.70;;;4.70;;
43449;SDS011;29041;42.266;23.110;2023-04-23T04:39:36;7.82;;;4.13;;
43449;SDS011;29041;42.266;23.110;2023-04-23T04:42:22;8.65;;;4.20;;
43449;SDS011;29041;42.266;23.110;2023-04-23T04:45:10;8.95;;;4.65;;
43449;SDS011;29041;42.266;23.110;2023-04-23T04:47:58;13.40;;;5.25;;
43449;SDS011;29041;42.266;23.110;2023-04-23T04:50:45;7.50;;;4.55;;
43449;SDS011;29041;42.266;23.110;2023-04-23T04:53:32;7.57;;;4.82;;
43449;SDS011;29041;42.266;23.110;2023-04-23T04:56:20;7.07;;;4.05;;
43449;SDS011;29041;42.266;23.110;2023-04-23T04:59:08;8.80;;;4.97;;
43449;SDS011;29041;42.266;23.110;2023-04-23T05:01:55;10.02;;;4.90;;
43449;SDS011;29041;42.266;23.110;2023-04-23T05:04:43;9.55;;;4.30;;
43449;SDS011;29041;42.266;23.110;2023-04-23T05:07:30;7.25;;;4.63;;
43449;SDS011;29041;42.266;23.110;2023-04-23T05:10:17;9.00;;;4.97;;
43449;SDS011;29041;42.266;23.110;2023-04-23T05:13:04;12.13;;;5.07;;
43449;SDS011;29041;42.266;23.110;2023-04-23T05:15:51;9.15;;;5.35;;
43449;SDS011;29041;42.266;23.110;2023-04-23T05:18:38;11.73;;;5.80;;
43449;SDS011;29041;42.266;23.110;2023-04-23T05:21:26;9.65;;;5.45;;
43449;SDS011;29041;42.266;23.110;2023-04-23T05:24:13;9.07;;;4.97;;
43449;SDS011;29041;42.266;23.110;2023-04-23T05:27:00;8.50;;;6.40;;
43449;SDS011;29041;42.266;23.110;2023-04-23T05:29:47;13.63;;;6.82;;
43449;SDS011;29041;42.266;23.110;2023-04-23T05:32:34;14.13;;;6.93;;
43449;SDS011;29041;42.266;23.110;2023-04-23T05:35:21;9.77;;;5.40;;
43449;SDS011;29041;42.266;23.110;2023-04-23T05:38:09;7.93;;;5.07;;
43449;SDS011;29041;42.266;23.110;2023-04-23T05:40:56;11.65;;;6.10;;
43449;SDS011;29041;42.266;23.110;2023-04-23T05:43:43;9.18;;;5.97;;
43449;SDS011;29041;42.266;23.110;2023-04-23T05:49:05;10.02;;;5.88;;
43449;SDS011;29041;42.266;23.110;2023-04-23T05:51:59;8.73;;;4.78;;
43449;SDS011;29041;42.266;23.110;2023-04-23T06:14:47;8.55;;;5.78;;
43449;SDS011;29041;42.266;23.110;2023-04-23T06:17:42;5.45;;;4.05;;
43449;SDS011;29041;42.266;23.110;2023-04-23T06:20:39;7.68;;;4.88;;
43449;SDS011;29041;42.266;23.110;2023-04-23T06:23:28;6.75;;;4.88;;
43449;SDS011;29041;42.266;23.110;2023-04-23T06:26:29;7.90;;;4.30;;
43449;SDS011;29041;42.266;23.110;2023-04-23T06:29:35;10.43;;;3.08;;
43449;SDS011;29041;42.266;23.110;2023-04-23T06:35:54;4.55;;;3.63;;
43449;SDS011;29041;42.266;23.110;2023-04-23T06:41:16;4.70;;;2.80;;
43449;SDS011;29041;42.266;23.110;2023-04-23T06:44:25;6.60;;;3.80;;
43449;SDS011;29041;42.266;23.110;2023-04-23T06:47:26;3.88;;;3.22;;
43449;SDS011;29041;42.266;23.110;2023-04-23T06:50:15;11.70;;;3.83;;
43449;SDS011;29041;42.266;23.110;2023-04-23T06:56:22;5.68;;;3.70;;
43449;SDS011;29041;42.266;23.110;2023-04-23T06:59:23;7.53;;;3.42;;
43449;SDS011;29041;42.266;23.110;2023-04-23T07:02:15;9.40;;;4.03;;
43449;SDS011;29041;42.266;23.110;2023-04-23T07:05:05;4.57;;;3.17;;
43449;SDS011;29041;42.266;23.110;2023-04-23T07:08:03;19.30;;;10.43;;
43449;SDS011;29041;42.266;23.110;2023-04-23T07:10:56;5.30;;;3.25;;
43449;SDS011;29041;42.266;23.110;2023-04-23T07:13:45;14.65;;;6.55;;
43449;SDS011;29041;42.266;23.110;2023-04-23T07:16:33;11.75;;;5.30;;
43449;SDS011;29041;42.266;23.110;2023-04-23T07:19:22;5.47;;;3.67;;
43449;SDS011;29041;42.266;23.110;2023-04-23T07:22:21;3.33;;;2.45;;
43449;SDS011;29041;42.266;23.110;2023-04-23T07:28:14;4.18;;;3.17;;
43449;SDS011;29041;42.266;23.110;2023-04-23T07:31:03;6.00;;;3.38;;
43449;SDS011;29041;42.266;23.110;2023-04-23T07:33:49;6.38;;;4.63;;
43449;SDS011;29041;42.266;23.110;2023-04-23T07:36:36;8.88;;;4.85;;
43449;SDS011;29041;42.266;23.110;2023-04-23T07:39:23;6.05;;;4.60;;
43449;SDS011;29041;42.266;23.110;2023-04-23T07:42:10;4.60;;;3.05;;
43449;SDS011;29041;42.266;23.110;2023-04-23T07:44:57;2.92;;;2.55;;
43449;SDS011;29041;42.266;23.110;2023-04-23T07:47:46;2.60;;;2.40;;
43449;SDS011;29041;42.266;23.110;2023-04-23T07:50:33;3.25;;;2.00;;
43449;SDS011;29041;42.266;23.110;2023-04-23T07:53:20;4.65;;;2.80;;
43449;SDS011;29041;42.266;23.110;2023-04-23T07:56:07;4.10;;;2.40;;
43449;SDS011;29041;42.266;23.110;2023-04-23T07:58:54;3.17;;;2.10;;
43449;SDS011;29041;42.266;23.110;2023-04-23T08:01:42;3.45;;;2.35;;
43449;SDS011;29041;42.266;23.110;2023-04-23T08:04:30;8.20;;;1.85;;
43449;SDS011;29041;42.266;23.110;2023-04-23T08:07:17;7.32;;;2.38;;
43449;SDS011;29041;42.266;23.110;2023-04-23T08:10:04;4.40;;;2.30;;
43449;SDS011;29041;42.266;23.110;2023-04-23T08:12:51;6.47;;;2.65;;
43449;SDS011;29041;42.266;23.110;2023-04-23T08:15:39;2.92;;;2.63;;
43449;SDS011;29041;42.266;23.110;2023-04-23T08:18:25;3.90;;;2.95;;
43449;SDS011;29041;42.266;23.110;2023-04-23T08:21:14;2.88;;;2.50;;
43449;SDS011;29041;42.266;23.110;2023-04-23T08:24:01;6.57;;;2.88;;
43449;SDS011;29041;42.266;23.110;2023-04-23T08:26:48;5.40;;;2.35;;
43449;SDS011;29041;42.266;23.110;2023-04-23T08:29:35;6.22;;;2.67;;
43449;SDS011;29041;42.266;23.110;2023-04-23T08:32:22;7.13;;;3.80;;
43449;SDS011;29041;42.266;23.110;2023-04-23T08:35:09;6.40;;;2.50;;
43449;SDS011;29041;42.266;23.110;2023-04-23T08:37:58;4.45;;;2.95;;
43449;SDS011;29041;42.266;23.110;2023-04-23T08:40:46;3.55;;;1.95;;
43449;SDS011;29041;42.266;23.110;2023-04-23T08:43:36;2.60;;;2.03;;
43449;SDS011;29041;42.266;23.110;2023-04-23T08:46:24;3.50;;;2.85;;
43449;SDS011;29041;42.266;23.110;2023-04-23T08:49:13;2.78;;;1.40;;
43449;SDS011;29041;42.266;23.110;2023-04-23T08:52:03;2.40;;;2.20;;
43449;SDS011;29041;42.266;23.110;2023-04-23T08:54:58;2.35;;;1.73;;
43449;SDS011;29041;42.266;23.110;2023-04-23T08:57:46;2.88;;;1.95;;
43449;SDS011;29041;42.266;23.110;2023-04-23T09:00:34;2.40;;;2.00;;
43449;SDS011;29041;42.266;23.110;2023-04-23T09:03:20;3.97;;;1.90;;
43449;SDS011;29041;42.266;23.110;2023-04-23T09:06:08;4.32;;;2.25;;
43449;SDS011;29041;42.266;23.110;2023-04-23T09:08:55;2.50;;;1.63;;
43449;SDS011;29041;42.266;23.110;2023-04-23T09:11:44;3.15;;;2.33;;
43449;SDS011;29041;42.266;23.110;2023-04-23T09:14:30;3.05;;;1.90;;
43449;SDS011;29041;42.266;23.110;2023-04-23T09:17:17;4.20;;;1.58;;
43449;SDS011;29041;42.266;23.110;2023-04-23T09:20:05;4.25;;;2.35;;
43449;SDS011;29041;42.266;23.110;2023-04-23T09:22:53;7.38;;;1.77;;
43449;SDS011;29041;42.266;23.110;2023-04-23T09:25:39;2.05;;;1.30;;
43449;SDS011;29041;42.266;23.110;2023-04-23T09:28:34;2.17;;;1.50;;
43449;SDS011;29041;42.266;23.110;2023-04-23T09:31:21;2.67;;;1.55;;
43449;SDS011;29041;42.266;23.110;2023-04-23T09:34:09;4.32;;;2.08;;
43449;SDS011;29041;42.266;23.110;2023-04-23T09:36:55;2.70;;;1.55;;
43449;SDS011;29041;42.266;23.110;2023-04-23T09:39:42;3.50;;;2.10;;
43449;SDS011;29041;42.266;23.110;2023-04-23T09:42:29;2.25;;;1.20;;
43449;SDS011;29041;42.266;23.110;2023-04-23T09:45:19;3.20;;;1.85;;
43449;SDS011;29041;42.266;23.110;2023-04-23T09:48:06;2.10;;;1.60;;
43449;SDS011;29041;42.266;23.110;2023-04-23T09:50:53;1.80;;;1.25;;
43449;SDS011;29041;42.266;23.110;2023-04-23T09:53:40;2.22;;;1.40;;
43449;SDS011;29041;42.266;23.110;2023-04-23T09:56:28;3.03;;;1.60;;
43449;SDS011;29041;42.266;23.110;2023-04-23T09:59:18;6.20;;;3.13;;
43449;SDS011;29041;42.266;23.110;2023-04-23T10:02:07;2.03;;;1.33;;
43449;SDS011;29041;42.266;23.110;2023-04-23T10:04:55;2.65;;;2.00;;
43449;SDS011;29041;42.266;23.110;2023-04-23T10:07:42;3.08;;;2.20;;
43449;SDS011;29041;42.266;23.110;2023-04-23T10:10:30;3.17;;;1.75;;
43449;SDS011;29041;42.266;23.110;2023-04-23T10:13:17;3.95;;;1.80;;
43449;SDS011;29041;42.266;23.110;2023-04-23T10:16:04;2.28;;;1.48;;
43449;SDS011;29041;42.266;23.110;2023-04-23T10:18:52;4.38;;;1.42;;
43449;SDS011;29041;42.266;23.110;2023-04-23T10:21:41;2.30;;;1.73;;
43449;SDS011;29041;42.266;23.110;2023-04-23T10:24:30;1.85;;;1.30;;
43449;SDS011;29041;42.266;23.110;2023-04-23T10:27:18;2.80;;;1.95;;
43449;SDS011;29041;42.266;23.110;2023-04-23T10:30:08;2.15;;;1.30;;
43449;SDS011;29041;42.266;23.110;2023-04-23T10:32:55;1.45;;;1.20;;
43449;SDS011;29041;42.266;23.110;2023-04-23T10:35:44;2.03;;;1.20;;
43449;SDS011;29041;42.266;23.110;2023-04-23T10:38:31;3.92;;;1.58;;
43449;SDS011;29041;42.266;23.110;2023-04-23T10:41:18;2.65;;;1.40;;
43449;SDS011;29041;42.266;23.110;2023-04-23T10:44:10;4.82;;;1.38;;
43449;SDS011;29041;42.266;23.110;2023-04-23T10:46:57;3.00;;;1.08;;
43449;SDS011;29041;42.266;23.110;2023-04-23T10:49:45;1.52;;;1.10;;
43449;SDS011;29041;42.266;23.110;2023-04-23T10:52:35;4.38;;;1.33;;
43449;SDS011;29041;42.266;23.110;2023-04-23T10:55:23;1.42;;;0.93;;
43449;SDS011;29041;42.266;23.110;2023-04-23T10:58:10;2.20;;;1.30;;
43449;SDS011;29041;42.266;23.110;2023-04-23T11:00:57;2.83;;;1.42;;
43449;SDS011;29041;42.266;23.110;2023-04-23T11:03:50;2.40;;;1.67;;
43449;SDS011;29041;42.266;23.110;2023-04-23T11:06:50;2.58;;;1.38;;
43449;SDS011;29041;42.266;23.110;2023-04-23T11:09:39;1.35;;;1.10;;
43449;SDS011;29041;42.266;23.110;2023-04-23T11:12:30;1.23;;;0.80;;
43449;SDS011;29041;42.266;23.110;2023-04-23T11:15:18;1.13;;;0.82;;
43449;SDS011;29041;42.266;23.110;2023-04-23T11:18:05;1.88;;;0.98;;
43449;SDS011;29041;42.266;23.110;2023-04-23T11:20:55;2.38;;;0.93;;
43449;SDS011;29041;42.266;23.110;2023-04-23T11:23:42;1.25;;;0.82;;
43449;SDS011;29041;42.266;23.110;2023-04-23T11:26:32;1.05;;;1.00;;
43449;SDS011;29041;42.266;23.110;2023-04-23T11:29:20;1.77;;;1.25;;
43449;SDS011;29041;42.266;23.110;2023-04-23T11:32:08;1.95;;;1.00;;
43449;SDS011;29041;42.266;23.110;2023-04-23T11:34:57;1.52;;;0.93;;
43449;SDS011;29041;42.266;23.110;2023-04-23T11:37:45;1.02;;;0.88;;
43449;SDS011;29041;42.266;23.110;2023-04-23T11:40:33;4.20;;;0.90;;
43449;SDS011;29041;42.266;23.110;2023-04-23T11:43:22;3.42;;;2.53;;
43449;SDS011;29041;42.266;23.110;2023-04-23T11:46:09;3.67;;;2.08;;
43449;SDS011;29041;42.266;23.110;2023-04-23T11:48:56;1.65;;;1.08;;
43449;SDS011;29041;42.266;23.110;2023-04-23T11:51:45;1.92;;;1.30;;
43449;SDS011;29041;42.266;23.110;2023-04-23T11:54:32;3.88;;;2.10;;
43449;SDS011;29041;42.266;23.110;2023-04-23T11:57:19;3.25;;;1.45;;
43449;SDS011;29041;42.266;23.110;2023-04-23T12:00:13;2.28;;;1.55;;
43449;SDS011;29041;42.266;23.110;2023-04-23T12:03:01;4.82;;;1.45;;
43449;SDS011;29041;42.266;23.110;2023-04-23T12:05:49;2.75;;;2.10;;
43449;SDS011;29041;42.266;23.110;2023-04-23T12:08:36;5.53;;;2.55;;
43449;SDS011;29041;42.266;23.110;2023-04-23T12:11:27;2.15;;;1.30;;
43449;SDS011;29041;42.266;23.110;2023-04-23T12:14:14;2.65;;;1.45;;
43449;SDS011;29041;42.266;23.110;2023-04-23T12:17:09;2.60;;;1.20;;
43449;SDS011;29041;42.266;23.110;2023-04-23T12:19:56;4.90;;;1.40;;
43449;SDS011;29041;42.266;23.110;2023-04-23T12:22:43;6.05;;;1.95;;
43449;SDS011;29041;42.266;23.110;2023-04-23T12:25:29;2.70;;;1.50;;
43449;SDS011;29041;42.266;23.110;2023-04-23T12:28:16;2.47;;;1.17;;
43449;SDS011;29041;42.266;23.110;2023-04-23T12:31:08;2.50;;;1.80;;
43449;SDS011;29041;42.266;23.110;2023-04-23T12:33:57;1.70;;;1.08;;
43449;SDS011;29041;42.266;23.110;2023-04-23T12:36:46;2.28;;;1.25;;
43449;SDS011;29041;42.266;23.110;2023-04-23T12:39:33;1.13;;;0.82;;
43449;SDS011;29041;42.266;23.110;2023-04-23T12:42:20;1.83;;;1.02;;
43449;SDS011;29041;42.266;23.110;2023-04-23T12:45:08;2.15;;;0.90;;
43449;SDS011;29041;42.266;23.110;2023-04-23T12:47:55;2.28;;;1.10;;
43449;SDS011;29041;42.266;23.110;2023-04-23T12:50:44;1.90;;;1.30;;
43449;SDS011;29041;42.266;23.110;2023-04-23T12:53:31;2.03;;;1.40;;
43449;SDS011;29041;42.266;23.110;2023-04-23T12:56:18;2.85;;;0.90;;
43449;SDS011;29041;42.266;23.110;2023-04-23T12:59:05;2.42;;;1.10;;
43449;SDS011;29041;42.266;23.110;2023-04-23T13:01:52;1.08;;;0.70;;
43449;SDS011;29041;42.266;23.110;2023-04-23T13:04:39;1.58;;;1.02;;
43449;SDS011;29041;42.266;23.110;2023-04-23T13:07:27;2.13;;;1.30;;
43449;SDS011;29041;42.266;23.110;2023-04-23T13:10:14;7.88;;;1.35;;
43449;SDS011;29041;42.266;23.110;2023-04-23T13:13:01;2.13;;;1.17;;
43449;SDS011;29041;42.266;23.110;2023-04-23T13:15:48;6.88;;;3.55;;
43449;SDS011;29041;42.266;23.110;2023-04-23T13:18:35;5.25;;;1.85;;
43449;SDS011;29041;42.266;23.110;2023-04-23T13:21:22;1.42;;;1.13;;
43449;SDS011;29041;42.266;23.110;2023-04-23T13:24:10;7.85;;;3.70;;
43449;SDS011;29041;42.266;23.110;2023-04-23T13:26:57;5.22;;;3.22;;
43449;SDS011;29041;42.266;23.110;2023-04-23T13:29:45;2.13;;;1.40;;
43449;SDS011;29041;42.266;23.110;2023-04-23T13:32:32;3.45;;;1.40;;
43449;SDS011;29041;42.266;23.110;2023-04-23T13:35:19;1.60;;;1.20;;
43449;SDS011;29041;42.266;23.110;2023-04-23T13:38:06;2.03;;;0.90;;
43449;SDS011;29041;42.266;23.110;2023-04-23T13:40:55;2.03;;;1.45;;
43449;SDS011;29041;42.266;23.110;2023-04-23T13:43:42;2.17;;;1.33;;
43449;SDS011;29041;42.266;23.110;2023-04-23T13:46:28;1.83;;;1.23;;
43449;SDS011;29041;42.266;23.110;2023-04-23T13:49:15;4.40;;;1.70;;
43449;SDS011;29041;42.266;23.110;2023-04-23T13:52:02;3.25;;;1.63;;
43449;SDS011;29041;42.266;23.110;2023-04-23T13:54:51;3.53;;;1.45;;
43449;SDS011;29041;42.266;23.110;2023-04-23T13:57:40;1.90;;;1.20;;
43449;SDS011;29041;42.266;23.110;2023-04-23T14:00:28;1.98;;;0.95;;
43449;SDS011;29041;42.266;23.110;2023-04-23T14:03:15;2.60;;;1.38;;
43449;SDS011;29041;42.266;23.110;2023-04-23T14:06:02;2.60;;;1.10;;
43449;SDS011;29041;42.266;23.110;2023-04-23T14:08:48;2.05;;;1.33;;
43449;SDS011;29041;42.266;23.110;2023-04-23T14:11:35;3.90;;;1.65;;
43449;SDS011;29041;42.266;23.110;2023-04-23T14:14:26;3.20;;;1.23;;
43449;SDS011;29041;42.266;23.110;2023-04-23T14:17:13;2.47;;;1.33;;
43449;SDS011;29041;42.266;23.110;2023-04-23T14:20:00;2.58;;;1.52;;
43449;SDS011;29041;42.266;23.110;2023-04-23T14:22:47;3.45;;;1.65;;
43449;SDS011;29041;42.266;23.110;2023-04-23T14:25:38;1.90;;;1.65;;
43449;SDS011;29041;42.266;23.110;2023-04-23T14:28:26;1.88;;;1.48;;
43449;SDS011;29041;42.266;23.110;2023-04-23T14:31:15;1.98;;;1.50;;
43449;SDS011;29041;42.266;23.110;2023-04-23T14:34:02;1.45;;;1.23;;
43449;SDS011;29041;42.266;23.110;2023-04-23T14:36:49;1.75;;;1.40;;
43449;SDS011;29041;42.266;23.110;2023-04-23T14:39:37;2.20;;;2.00;;
43449;SDS011;29041;42.266;23.110;2023-04-23T14:42:24;2.08;;;1.58;;
43449;SDS011;29041;42.266;23.110;2023-04-23T14:45:11;1.65;;;1.45;;
43449;SDS011;29041;42.266;23.110;2023-04-23T14:48:01;2.10;;;1.70;;
43449;SDS011;29041;42.266;23.110;2023-04-23T14:50:47;3.03;;;1.52;;
43449;SDS011;29041;42.266;23.110;2023-04-23T14:53:35;2.35;;;1.80;;
43449;SDS011;29041;42.266;23.110;2023-04-23T14:56:22;1.65;;;1.27;;
43449;SDS011;29041;42.266;23.110;2023-04-23T14:59:09;2.30;;;1.60;;
43449;SDS011;29041;42.266;23.110;2023-04-23T15:01:55;1.85;;;1.27;;
43449;SDS011;29041;42.266;23.110;2023-04-23T15:04:44;3.03;;;1.73;;
43449;SDS011;29041;42.266;23.110;2023-04-23T15:07:31;1.88;;;1.63;;
43449;SDS011;29041;42.266;23.110;2023-04-23T15:10:18;1.67;;;1.30;;
43449;SDS011;29041;42.266;23.110;2023-04-23T15:13:08;2.55;;;1.70;;
43449;SDS011;29041;42.266;23.110;2023-04-23T15:16:02;2.33;;;1.70;;
43449;SDS011;29041;42.266;23.110;2023-04-23T15:18:53;4.72;;;2.47;;
43449;SDS011;29041;42.266;23.110;2023-04-23T15:21:41;3.05;;;1.33;;
43449;SDS011;29041;42.266;23.110;2023-04-23T15:24:28;2.20;;;1.80;;
43449;SDS011;29041;42.266;23.110;2023-04-23T15:27:15;3.05;;;1.35;;
43449;SDS011;29041;42.266;23.110;2023-04-23T15:30:02;2.35;;;1.95;;
43449;SDS011;29041;42.266;23.110;2023-04-23T15:32:49;4.38;;;2.30;;
43449;SDS011;29041;42.266;23.110;2023-04-23T15:35:36;1.90;;;1.42;;
43449;SDS011;29041;42.266;23.110;2023-04-23T15:38:24;3.67;;;1.83;;
43449;SDS011;29041;42.266;23.110;2023-04-23T15:41:11;2.28;;;1.85;;
43449;SDS011;29041;42.266;23.110;2023-04-23T15:43:58;3.55;;;2.45;;
43449;SDS011;29041;42.266;23.110;2023-04-23T15:46:47;4.35;;;3.00;;
43449;SDS011;29041;42.266;23.110;2023-04-23T15:49:34;4.30;;;2.70;;
43449;SDS011;29041;42.266;23.110;2023-04-23T15:52:20;3.97;;;2.05;;
43449;SDS011;29041;42.266;23.110;2023-04-23T15:55:09;3.13;;;2.10;;
43449;SDS011;29041;42.266;23.110;2023-04-23T15:57:56;11.50;;;2.95;;
43449;SDS011;29041;42.266;23.110;2023-04-23T16:00:46;4.55;;;2.72;;
43449;SDS011;29041;42.266;23.110;2023-04-23T16:03:33;4.53;;;3.00;;
43449;SDS011;29041;42.266;23.110;2023-04-23T16:06:20;3.88;;;2.30;;
43449;SDS011;29041;42.266;23.110;2023-04-23T16:09:07;2.80;;;2.40;;
43449;SDS011;29041;42.266;23.110;2023-04-23T16:11:55;3.97;;;2.40;;
43449;SDS011;29041;42.266;23.110;2023-04-23T16:14:42;3.05;;;2.67;;
43449;SDS011;29041;42.266;23.110;2023-04-23T16:17:29;1.52;;;1.42;;
43449;SDS011;29041;42.266;23.110;2023-04-23T16:20:16;4.30;;;1.88;;
43449;SDS011;29041;42.266;23.110;2023-04-23T16:23:03;3.70;;;1.77;;
43449;SDS011;29041;42.266;23.110;2023-04-23T16:25:51;2.13;;;1.92;;
43449;SDS011;29041;42.266;23.110;2023-04-23T16:28:39;2.97;;;1.80;;
43449;SDS011;29041;42.266;23.110;2023-04-23T16:31:26;7.20;;;2.45;;
43449;SDS011;29041;42.266;23.110;2023-04-23T16:34:13;8.82;;;2.70;;
43449;SDS011;29041;42.266;23.110;2023-04-23T16:37:00;2.70;;;2.25;;
43449;SDS011;29041;42.266;23.110;2023-04-23T16:39:47;3.20;;;2.30;;
43449;SDS011;29041;42.266;23.110;2023-04-23T16:42:34;3.55;;;2.28;;
43449;SDS011;29041;42.266;23.110;2023-04-23T16:45:22;2.78;;;1.90;;
43449;SDS011;29041;42.266;23.110;2023-04-23T16:48:09;3.42;;;2.10;;
43449;SDS011;29041;42.266;23.110;2023-04-23T16:51:00;3.72;;;2.88;;
43449;SDS011;29041;42.266;23.110;2023-04-23T16:53:48;3.38;;;2.67;;
43449;SDS011;29041;42.266;23.110;2023-04-23T16:56:34;2.55;;;2.15;;
43449;SDS011;29041;42.266;23.110;2023-04-23T16:59:21;3.67;;;2.25;;
43449;SDS011;29041;42.266;23.110;2023-04-23T17:02:10;7.13;;;2.00;;
43449;SDS011;29041;42.266;23.110;2023-04-23T17:04:57;3.53;;;2.63;;
43449;SDS011;29041;42.266;23.110;2023-04-23T17:07:44;2.70;;;1.98;;
43449;SDS011;29041;42.266;23.110;2023-04-23T17:10:32;5.05;;;2.05;;
43449;SDS011;29041;42.266;23.110;2023-04-23T17:13:21;2.50;;;1.88;;
43449;SDS011;29041;42.266;23.110;2023-04-23T17:16:08;4.70;;;1.80;;